Time;durP1;ratioP1;P1;durP2;ratioP2;P2;SDS_P1;SDS_P2;PMS_P1;PMS_P2;Temp;Humidity;BMP_temperature;BMP_pressure;BME280_temperature;BME280_humidity;BME280_pressure;Samples;Min_cycle;Max_cycle;Signal;HPM_P1;HPM_P2
2022/05/07 00:00:22;;;;;;;20.90;13.43;;;13.60;99.90;;;;;;5032072;28;20576;-66
2022/05/07 00:02:48;;;;;;;20.48;12.80;;;13.60;99.90;;;;;;5032555;28;20048;-66
2022/05/07 00:05:13;;;;;;;21.83;12.65;;;13.60;99.90;;;;;;5032299;28;20087;-66
2022/05/07 00:07:39;;;;;;;22.52;12.90;;;13.60;99.90;;;;;;5032653;28;20036;-66
2022/05/07 00:10:05;;;;;;;26.13;13.30;;;13.70;99.90;;;;;;5014191;28;20486;-66
2022/05/07 00:12:31;;;;;;;22.15;12.95;;;13.60;99.90;;;;;;5032166;28;20033;-66
2022/05/07 00:14:56;;;;;;;21.52;13.13;;;13.60;99.90;;;;;;5032161;28;20072;-67
2022/05/07 00:20:07;;;;;;;20.50;13.27;;;13.60;99.90;;;;;;5032337;28;20036;-66
2022/05/07 00:22:33;;;;;;;22.08;13.43;;;13.50;99.90;;;;;;5032540;28;20028;-66
2022/05/07 00:24:59;;;;;;;21.42;14.00;;;13.50;99.90;;;;;;5032530;28;20485;-67
2022/05/07 00:27:24;;;;;;;21.83;12.60;;;13.40;99.90;;;;;;5032210;28;20065;-66
2022/05/07 00:29:50;;;;;;;23.77;13.32;;;13.40;99.90;;;;;;5032243;28;20064;-67
2022/05/07 00:32:15;;;;;;;23.30;13.80;;;13.40;99.90;;;;;;5014569;28;20033;-67
2022/05/07 00:34:41;;;;;;;21.38;13.55;;;13.50;99.90;;;;;;5032117;28;20022;-66
2022/05/07 00:37:06;;;;;;;20.73;13.75;;;13.40;99.90;;;;;;5014550;28;20061;-67
2022/05/07 00:39:32;;;;;;;21.73;13.63;;;13.40;99.90;;;;;;5032387;28;20079;-67
2022/05/07 00:42:05;;;;;;;23.10;14.00;;;13.30;99.90;;;;;;5032326;28;20496;-67
2022/05/07 00:44:32;;;;;;;24.90;14.32;;;13.30;99.90;;;;;;5032197;28;20026;-66
2022/05/07 00:47:12;;;;;;;24.13;14.65;;;13.20;99.90;;;;;;5014349;28;20029;-66
2022/05/07 00:49:38;;;;;;;23.73;14.27;;;13.20;99.90;;;;;;5032019;28;20025;-67
2022/05/07 00:52:05;;;;;;;23.83;14.30;;;13.10;99.90;;;;;;5014420;28;20022;-66
2022/05/07 00:54:31;;;;;;;23.90;14.43;;;13.00;99.90;;;;;;5032210;28;20021;-67
2022/05/07 00:56:57;;;;;;;23.77;14.85;;;13.00;99.90;;;;;;5032194;28;20020;-67
2022/05/07 00:59:23;;;;;;;20.35;13.32;;;12.90;99.90;;;;;;5031834;28;20018;-66
2022/05/07 01:01:49;;;;;;;23.88;13.95;;;12.90;99.90;;;;;;5032189;28;20036;-67
2022/05/07 01:04:15;;;;;;;23.75;15.10;;;12.80;99.90;;;;;;5014129;28;20032;-67
2022/05/07 01:06:41;;;;;;;25.52;15.10;;;12.80;99.90;;;;;;5032009;28;20029;-67
2022/05/07 01:09:07;;;;;;;25.35;14.82;;;12.80;99.90;;;;;;5031771;28;20543;-67
2022/05/07 01:11:34;;;;;;;25.45;15.07;;;12.80;99.90;;;;;;5031917;28;20443;-68
2022/05/07 01:13:59;;;;;;;24.58;16.90;;;12.70;99.90;;;;;;5031533;28;20049;-68
2022/05/07 01:16:25;;;;;;;24.42;15.38;;;12.70;99.90;;;;;;5031799;28;20481;-67
2022/05/07 01:18:51;;;;;;;22.17;13.93;;;12.60;99.90;;;;;;5014172;28;20108;-66
2022/05/07 01:21:17;;;;;;;22.80;14.52;;;12.60;99.90;;;;;;5032055;28;20029;-67
2022/05/07 01:23:44;;;;;;;24.05;15.20;;;12.50;99.90;;;;;;5031710;28;20041;-67
2022/05/07 01:26:10;;;;;;;22.48;14.65;;;12.50;99.90;;;;;;5031855;28;20032;-67
2022/05/07 01:28:37;;;;;;;22.45;14.43;;;12.60;99.90;;;;;;5031677;28;20037;-66
2022/05/07 01:31:03;;;;;;;23.40;14.65;;;12.50;99.90;;;;;;5031633;28;20025;-67
2022/05/07 01:33:33;;;;;;;22.20;14.18;;;12.50;99.90;;;;;;5031507;28;20037;-67
2022/05/07 01:36:02;;;;;;;22.20;13.65;;;12.50;99.90;;;;;;5032882;28;20070;-68
2022/05/07 01:38:29;;;;;;;23.83;14.77;;;12.40;99.90;;;;;;5035541;28;20021;-67
2022/05/07 01:40:55;;;;;;;22.48;13.75;;;12.40;99.90;;;;;;5017468;28;20021;-67
2022/05/07 01:43:20;;;;;;;22.63;14.57;;;12.30;99.90;;;;;;5035244;28;20032;-68
2022/05/07 01:45:46;;;;;;;23.63;14.93;;;12.20;99.90;;;;;;5035591;28;20022;-67
2022/05/07 01:48:12;;;;;;;23.10;14.23;;;12.10;99.90;;;;;;5017579;28;20084;-66
2022/05/07 01:50:42;;;;;;;23.63;13.98;;;12.10;99.90;;;;;;5035238;28;20393;-63
2022/05/07 01:53:11;;;;;;;24.10;15.77;;;12.00;99.90;;;;;;5034535;28;20030;-67
2022/05/07 01:55:36;;;;;;;22.73;14.13;;;12.10;99.90;;;;;;5035223;28;20030;-66
2022/05/07 01:58:03;;;;;;;24.45;16.52;;;12.10;99.90;;;;;;5035222;28;20486;-67
2022/05/07 02:00:30;;;;;;;23.85;15.18;;;12.10;99.90;;;;;;5034821;28;20029;-66
2022/05/07 02:02:57;;;;;;;22.83;14.50;;;12.00;99.90;;;;;;5034897;28;20037;-66
2022/05/07 02:05:25;;;;;;;21.25;13.70;;;11.90;99.90;;;;;;5034831;28;20029;-66
2022/05/07 02:07:51;;;;;;;21.92;13.65;;;11.90;99.90;;;;;;5034968;28;20025;-67
2022/05/07 02:10:17;;;;;;;22.42;14.48;;;11.90;99.90;;;;;;5034675;28;20032;-66
2022/05/07 02:12:42;;;;;;;25.20;15.25;;;11.90;99.90;;;;;;5034745;28;20036;-67
2022/05/07 02:15:08;;;;;;;23.67;15.10;;;11.80;99.90;;;;;;5034607;28;20017;-67
2022/05/07 02:17:34;;;;;;;24.30;14.75;;;11.80;99.90;;;;;;5034710;28;20401;-67
2022/05/07 02:20:00;;;;;;;25.92;15.20;;;11.80;99.90;;;;;;5034541;28;20051;-66
2022/05/07 02:22:25;;;;;;;23.35;13.82;;;11.80;99.90;;;;;;5034740;28;20370;-66
2022/05/07 02:24:51;;;;;;;23.25;14.27;;;11.80;99.90;;;;;;5034479;28;20049;-67
2022/05/07 02:27:17;;;;;;;22.33;14.18;;;11.60;99.90;;;;;;5034770;28;20397;-66
2022/05/07 02:29:43;;;;;;;22.45;15.25;;;11.50;99.90;;;;;;5034519;28;20029;-66
2022/05/07 02:32:12;;;;;;;22.45;15.00;;;11.50;99.90;;;;;;5034910;28;20025;-69
2022/05/07 02:34:38;;;;;;;25.45;14.93;;;11.40;99.90;;;;;;5034410;28;20173;-66
2022/05/07 02:37:04;;;;;;;21.95;14.05;;;11.40;99.90;;;;;;5034472;28;20057;-67
2022/05/07 02:39:30;;;;;;;20.77;14.15;;;11.40;99.90;;;;;;5034397;28;20163;-66
2022/05/07 02:44:40;;;;;;;24.05;14.32;;;11.40;99.90;;;;;;5034288;28;20181;-67
2022/05/07 02:47:05;;;;;;;22.80;14.43;;;11.30;99.90;;;;;;5033668;28;20135;-67
2022/05/07 02:49:32;;;;;;;24.85;14.80;;;11.30;99.90;;;;;;5034201;28;20033;-67
2022/05/07 02:51:57;;;;;;;23.00;14.80;;;11.30;99.90;;;;;;5034293;28;20117;-68
2022/05/07 02:54:23;;;;;;;24.75;15.20;;;11.30;99.90;;;;;;5034544;28;20049;-66
2022/05/07 02:56:49;;;;;;;23.70;15.30;;;11.30;99.90;;;;;;5034121;28;20022;-67
2022/05/07 02:59:14;;;;;;;21.83;14.68;;;11.20;99.90;;;;;;5034098;28;20451;-66
2022/05/07 03:01:41;;;;;;;23.05;14.93;;;11.20;99.90;;;;;;5016443;28;20032;-67
2022/05/07 03:04:08;;;;;;;22.77;15.02;;;11.20;99.90;;;;;;5016229;28;20022;-66
2022/05/07 03:06:34;;;;;;;27.73;16.30;;;11.00;99.90;;;;;;5033884;28;20500;-66
2022/05/07 03:09:00;;;;;;;26.02;15.23;;;10.90;99.90;;;;;;5016199;28;20398;-66
2022/05/07 03:11:26;;;;;;;24.80;16.08;;;10.90;99.90;;;;;;5034272;28;20021;-66
2022/05/07 03:13:51;;;;;;;27.00;16.63;;;10.80;99.90;;;;;;5034322;28;20018;-66
2022/05/07 03:16:17;;;;;;;24.17;15.85;;;10.80;99.90;;;;;;5033945;28;20164;-67
2022/05/07 03:18:43;;;;;;;24.35;17.20;;;10.80;99.90;;;;;;5033930;28;20026;-67
2022/05/07 03:21:08;;;;;;;31.15;17.80;;;10.90;99.90;;;;;;5016382;28;20025;-69
2022/05/07 03:23:34;;;;;;;28.25;17.27;;;10.90;99.90;;;;;;5034442;28;20128;-67
2022/05/07 03:25:59;;;;;;;23.98;15.30;;;10.80;99.90;;;;;;5016721;28;20100;-67
2022/05/07 03:28:25;;;;;;;27.80;15.93;;;10.80;99.90;;;;;;5016792;28;20548;-67
2022/05/07 03:30:51;;;;;;;23.98;15.18;;;10.70;99.90;;;;;;5037133;28;20032;-67
2022/05/07 03:33:16;;;;;;;24.08;16.38;;;10.70;99.90;;;;;;5022885;28;20029;-66
2022/05/07 03:35:43;;;;;;;25.13;16.02;;;10.70;99.90;;;;;;5036618;28;20022;-67
2022/05/07 03:38:10;;;;;;;23.70;15.50;;;10.70;99.90;;;;;;5040891;28;20018;-67
2022/05/07 03:40:35;;;;;;;23.80;16.08;;;10.70;99.90;;;;;;5042210;28;20029;-68
2022/05/07 03:43:03;;;;;;;30.13;17.75;;;10.60;99.90;;;;;;5024821;28;20051;-68
2022/05/07 03:45:29;;;;;;;23.77;15.98;;;10.60;99.90;;;;;;5043547;28;20041;-68
2022/05/07 03:47:55;;;;;;;25.40;15.70;;;10.60;99.90;;;;;;5041790;28;20028;-67
2022/05/07 03:50:21;;;;;;;26.38;16.52;;;10.50;99.90;;;;;;5041524;28;20025;-67
2022/05/07 03:55:31;;;;;;;23.58;16.20;;;10.50;99.90;;;;;;5041326;28;20049;-66
2022/05/07 03:57:57;;;;;;;24.27;15.50;;;10.50;99.90;;;;;;5022625;28;20473;-67
2022/05/07 04:00:22;;;;;;;22.98;14.85;;;10.60;99.90;;;;;;5039905;28;20017;-67
2022/05/07 04:02:48;;;;;;;24.98;15.45;;;10.70;99.90;;;;;;5040243;28;20056;-67
2022/05/07 04:05:13;;;;;;;25.58;15.35;;;10.80;99.90;;;;;;5038832;28;20053;-66
2022/05/07 04:07:39;;;;;;;22.65;15.27;;;10.80;99.90;;;;;;5035076;28;20080;-67
2022/05/07 04:10:05;;;;;;;25.02;15.30;;;10.80;99.90;;;;;;5032489;28;20029;-67
2022/05/07 04:12:31;;;;;;;23.77;14.60;;;10.80;99.90;;;;;;5032410;28;20444;-66
2022/05/07 04:15:00;;;;;;;24.05;15.25;;;10.80;99.90;;;;;;5032608;28;20018;-67
2022/05/07 04:17:27;;;;;;;25.27;15.98;;;10.90;99.90;;;;;;5032540;28;20056;-66
2022/05/07 04:19:53;;;;;;;24.60;15.77;;;11.00;99.90;;;;;;5032459;28;20072;-67
2022/05/07 04:22:19;;;;;;;24.58;15.23;;;11.10;99.90;;;;;;5032632;28;20037;-66
2022/05/07 04:24:45;;;;;;;28.20;15.40;;;11.10;99.90;;;;;;5014374;28;20144;-67
2022/05/07 04:27:11;;;;;;;22.35;14.82;;;11.20;99.90;;;;;;5032511;28;20490;-66
2022/05/07 04:29:37;;;;;;;22.63;14.95;;;11.20;99.90;;;;;;5032299;28;20151;-67
2022/05/07 04:32:03;;;;;;;27.02;15.55;;;11.30;99.90;;;;;;5032317;28;20029;-66
2022/05/07 04:34:29;;;;;;;26.10;15.57;;;11.40;99.90;;;;;;5032351;28;20021;-67
2022/05/07 04:36:56;;;;;;;24.48;15.27;;;11.50;99.90;;;;;;5032362;28;20021;-66
2022/05/07 04:39:22;;;;;;;22.33;15.02;;;11.60;99.90;;;;;;5032170;28;20030;-66
2022/05/07 04:41:48;;;;;;;24.77;15.27;;;11.70;99.90;;;;;;5014419;28;20125;-66
2022/05/07 04:44:13;;;;;;;23.35;15.52;;;11.70;99.90;;;;;;5032167;28;20104;-66
2022/05/07 04:46:42;;;;;;;26.02;16.02;;;11.80;99.90;;;;;;5032170;28;20508;-66
2022/05/07 04:49:07;;;;;;;23.27;15.05;;;11.90;99.90;;;;;;5014315;28;20053;-66
2022/05/07 04:51:33;;;;;;;23.40;14.70;;;12.00;99.90;;;;;;5014235;28;20069;-66
2022/05/07 04:53:58;;;;;;;26.27;16.92;;;12.10;99.90;;;;;;5031978;28;20092;-68
2022/05/07 04:56:27;;;;;;;26.92;16.02;;;12.10;99.90;;;;;;5032187;28;20057;-65
2022/05/07 04:58:53;;;;;;;26.92;16.63;;;12.20;99.90;;;;;;5014407;28;20067;-66
2022/05/07 05:01:18;;;;;;;27.48;17.63;;;12.10;99.90;;;;;;5014494;28;20033;-66
2022/05/07 05:03:44;;;;;;;27.75;17.08;;;12.30;99.90;;;;;;5032311;28;20462;-66
2022/05/07 05:06:10;;;;;;;25.67;17.15;;;12.30;99.90;;;;;;5032074;28;20096;-67
2022/05/07 05:08:35;;;;;;;23.05;16.15;;;12.40;99.90;;;;;;5032325;28;20120;-66
2022/05/07 05:11:01;;;;;;;25.58;16.35;;;12.50;99.90;;;;;;5033322;28;20029;-65
2022/05/07 05:13:26;;;;;;;27.02;17.17;;;12.40;99.90;;;;;;5036151;28;20405;-66
2022/05/07 05:15:52;;;;;;;24.13;16.23;;;12.40;99.90;;;;;;5035880;28;20497;-66
2022/05/07 05:18:18;;;;;;;23.92;15.88;;;12.50;99.90;;;;;;5035981;28;20045;-67
2022/05/07 05:20:43;;;;;;;27.58;17.35;;;12.60;99.90;;;;;;5035725;28;20025;-66
2022/05/07 05:23:09;;;;;;;30.30;21.92;;;12.70;99.90;;;;;;5035876;28;20504;-67
2022/05/07 05:25:34;;;;;;;25.00;16.98;;;12.80;99.90;;;;;;5035663;28;20044;-66
2022/05/07 05:28:00;;;;;;;27.38;18.48;;;12.90;99.90;;;;;;5035864;28;20025;-65
2022/05/07 05:30:26;;;;;;;27.67;18.23;;;13.00;99.90;;;;;;5035571;28;20408;-66
2022/05/07 05:32:51;;;;;;;27.08;17.13;;;13.10;99.90;;;;;;5035514;28;20025;-68
2022/05/07 05:35:17;;;;;;;26.55;17.08;;;13.20;99.90;;;;;;5035455;28;20045;-66
2022/05/07 05:37:43;;;;;;;25.45;16.88;;;13.40;99.90;;;;;;5035662;28;20381;-69
2022/05/07 05:40:08;;;;;;;27.63;16.60;;;13.60;99.90;;;;;;5035198;28;20059;-66
2022/05/07 05:42:34;;;;;;;23.88;17.08;;;13.80;99.90;;;;;;5017770;28;20083;-64
2022/05/07 05:45:00;;;;;;;27.17;17.48;;;13.90;99.90;;;;;;5017412;28;20112;-66
2022/05/07 05:47:25;;;;;;;25.30;17.88;;;14.00;99.90;;;;;;5035329;28;20064;-66
2022/05/07 05:49:52;;;;;;;31.55;22.25;;;14.20;99.90;;;;;;5035154;28;20437;-66
2022/05/07 05:52:18;;;;;;;26.67;18.83;;;14.40;99.90;;;;;;5035233;28;20047;-66
2022/05/07 05:54:43;;;;;;;25.58;17.35;;;14.60;99.90;;;;;;5034987;28;20474;-67
2022/05/07 05:57:09;;;;;;;28.02;18.20;;;14.80;99.90;;;;;;5035456;28;20033;-66
2022/05/07 05:59:34;;;;;;;28.33;18.10;;;15.00;99.90;;;;;;5034949;28;20171;-66
2022/05/07 06:02:00;;;;;;;32.25;21.67;;;15.10;99.90;;;;;;5035097;28;20051;-66
2022/05/07 06:04:26;;;;;;;29.30;19.80;;;15.10;99.90;;;;;;5035793;28;20033;-68
2022/05/07 06:06:51;;;;;;;27.08;18.10;;;15.20;99.90;;;;;;5017264;28;20028;-68
2022/05/07 06:09:17;;;;;;;28.33;19.35;;;15.30;99.90;;;;;;5034647;28;20026;-67
2022/05/07 06:11:43;;;;;;;30.08;20.42;;;15.20;99.90;;;;;;5017110;28;20397;-68
2022/05/07 06:14:08;;;;;;;25.55;17.88;;;15.30;99.90;;;;;;5017127;28;20017;-69
2022/05/07 06:16:34;;;;;;;26.40;18.42;;;15.30;99.90;;;;;;5035096;28;20030;-67
2022/05/07 06:18:59;;;;;;;27.75;19.33;;;15.10;99.90;;;;;;5034757;28;20022;-68
2022/05/07 06:21:26;;;;;;;24.40;16.80;;;15.20;99.90;;;;;;5034739;28;20416;-67
2022/05/07 06:23:52;;;;;;;25.65;17.98;;;15.40;99.90;;;;;;5035720;28;20039;-67
2022/05/07 06:29:02;;;;;;;25.90;18.65;;;15.70;99.90;;;;;;5034927;28;20060;-67
2022/05/07 06:31:29;;;;;;;27.30;18.35;;;15.80;99.90;;;;;;5034599;28;20033;-67
2022/05/07 06:33:55;;;;;;;24.02;17.15;;;15.90;99.90;;;;;;5034439;28;20105;-68
2022/05/07 06:36:20;;;;;;;25.92;17.20;;;16.00;99.90;;;;;;5034871;28;20022;-67
2022/05/07 06:38:46;;;;;;;25.67;18.48;;;16.00;99.90;;;;;;5034297;28;20394;-67
2022/05/07 06:41:11;;;;;;;29.48;17.58;;;15.90;99.90;;;;;;5034114;28;20375;-68
2022/05/07 06:43:37;;;;;;;28.73;18.63;;;15.90;99.90;;;;;;5016413;28;20029;-67
2022/05/07 06:46:03;;;;;;;27.63;18.55;;;16.10;99.90;;;;;;5034269;28;20025;-68
2022/05/07 06:48:29;;;;;;;26.92;18.50;;;16.30;99.90;;;;;;5034166;28;20112;-68
2022/05/07 06:50:55;;;;;;;27.00;17.95;;;16.40;99.90;;;;;;5034123;28;20061;-68
2022/05/07 06:53:21;;;;;;;25.10;17.38;;;16.60;99.90;;;;;;5034131;28;20025;-67
2022/05/07 06:55:56;;;;;;;26.90;18.90;;;16.80;99.90;;;;;;5033792;28;20024;-69
2022/05/07 06:58:30;;;;;;;25.63;17.67;;;16.90;99.90;;;;;;5016452;28;20095;-67
2022/05/07 07:00:57;;;;;;;27.67;17.88;;;17.00;99.90;;;;;;5031824;28;20115;-68
2022/05/07 07:03:23;;;;;;;24.98;17.52;;;16.90;99.90;;;;;;5034133;28;20456;-69
2022/05/07 07:05:50;;;;;;;24.75;16.35;;;16.70;99.90;;;;;;5017406;28;20029;-68
2022/05/07 07:08:17;;;;;;;26.63;18.05;;;16.50;99.90;;;;;;5015453;28;20037;-68
2022/05/07 07:10:42;;;;;;;23.73;17.38;;;16.40;99.90;;;;;;5033716;28;20092;-67
2022/05/07 07:13:08;;;;;;;23.90;16.67;;;16.60;99.90;;;;;;5033506;28;20117;-67
2022/05/07 07:15:36;;;;;;;26.40;17.25;;;16.70;99.90;;;;;;5033397;28;20117;-67
2022/05/07 07:18:04;;;;;;;26.63;18.50;;;16.60;99.90;;;;;;5021974;28;20545;-67
2022/05/07 07:20:30;;;;;;;30.83;17.77;;;16.50;99.90;;;;;;5013857;28;20400;-67
2022/05/07 07:22:56;;;;;;;27.48;18.33;;;16.60;99.90;;;;;;5013299;28;20034;-67
2022/05/07 07:25:21;;;;;;;27.73;17.83;;;16.70;99.90;;;;;;5013181;28;20087;-67
2022/05/07 07:27:47;;;;;;;29.38;20.08;;;16.80;99.90;;;;;;5013379;28;20037;-67
2022/05/07 07:30:13;;;;;;;27.33;18.75;;;16.90;99.90;;;;;;5013414;28;20036;-67
2022/05/07 07:32:39;;;;;;;28.70;20.42;;;16.80;99.90;;;;;;5013230;28;20042;-67
2022/05/07 07:35:05;;;;;;;28.27;20.42;;;16.90;99.90;;;;;;5012875;28;20046;-67
2022/05/07 07:37:32;;;;;;;26.75;19.70;;;17.00;99.90;;;;;;5013361;28;20022;-67
2022/05/07 07:40:00;;;;;;;28.45;20.45;;;17.00;99.90;;;;;;5012039;28;20018;-68
2022/05/07 07:42:27;;;;;;;31.08;21.15;;;17.20;99.90;;;;;;5012991;28;20053;-67
2022/05/07 07:47:57;;;;;;;29.30;19.83;;;17.10;99.90;;;;;;4982571;28;20038;-66
2022/05/07 07:50:24;;;;;;;28.75;20.08;;;17.10;99.90;;;;;;5012954;28;20025;-68
2022/05/07 07:53:00;;;;;;;29.50;21.33;;;17.40;99.90;;;;;;5012282;28;20022;-66
2022/05/07 07:55:26;;;;;;;32.50;21.15;;;17.50;99.90;;;;;;4995366;28;20022;-67
2022/05/07 07:57:59;;;;;;;30.00;21.80;;;17.50;99.90;;;;;;5013075;28;20021;-67
2022/05/07 08:00:26;;;;;;;31.60;22.50;;;17.50;99.90;;;;;;5017520;28;20121;-67
2022/05/07 08:02:55;;;;;;;29.65;21.73;;;17.60;99.90;;;;;;5032418;28;20474;-66
2022/05/07 08:05:29;;;;;;;35.05;23.15;;;17.70;99.90;;;;;;5032609;28;20445;-67
2022/05/07 08:13:23;;;;;;;31.17;23.35;;;18.10;99.90;;;;;;5032381;28;20076;-67
2022/05/07 08:15:49;;;;;;;32.65;24.65;;;18.10;99.90;;;;;;5032434;28;20045;-66
2022/05/07 08:18:16;;;;;;;32.15;24.70;;;18.20;99.90;;;;;;5032233;28;20017;-67
2022/05/07 08:20:42;;;;;;;33.67;24.25;;;18.30;99.90;;;;;;5032416;28;20491;-66
2022/05/07 08:23:09;;;;;;;34.50;25.00;;;18.30;99.90;;;;;;5032167;28;20034;-66
2022/05/07 08:25:35;;;;;;;32.42;24.95;;;18.50;99.90;;;;;;5014511;28;20116;-66
2022/05/07 08:28:01;;;;;;;40.25;26.40;;;18.40;99.90;;;;;;5032205;28;20026;-66
2022/05/07 08:30:26;;;;;;;33.47;25.10;;;18.60;99.90;;;;;;5014154;28;20025;-67
2022/05/07 08:32:52;;;;;;;32.83;25.83;;;18.80;99.90;;;;;;5031869;28;20026;-63
2022/05/07 08:35:18;;;;;;;33.17;24.00;;;18.80;99.90;;;;;;4676728;28;10000107;-65
2022/05/07 08:37:45;;;;;;;34.10;24.90;;;19.00;99.90;;;;;;5019061;28;20038;-66
2022/05/07 08:40:14;;;;;;;46.78;25.88;;;19.20;99.90;;;;;;5024596;28;20022;-66
2022/05/07 08:42:40;;;;;;;32.45;24.55;;;19.30;99.90;;;;;;5010083;28;20026;-66
2022/05/07 08:45:06;;;;;;;32.20;25.10;;;19.40;99.90;;;;;;5018728;28;20175;-67
2022/05/07 08:47:32;;;;;;;34.67;26.73;;;19.40;99.90;;;;;;5029247;28;20039;-66
2022/05/07 08:49:58;;;;;;;36.47;25.83;;;19.50;99.90;;;;;;5029007;28;20397;-66
2022/05/07 08:52:26;;;;;;;37.53;25.92;;;19.80;99.90;;;;;;5029330;28;20374;-65
2022/05/07 08:54:52;;;;;;;33.38;26.58;;;20.00;99.90;;;;;;5014237;28;20109;-66
2022/05/07 08:57:17;;;;;;;34.33;26.90;;;20.10;99.90;;;;;;5017921;28;20163;-66
2022/05/07 08:59:43;;;;;;;34.47;26.80;;;20.10;99.90;;;;;;5019344;28;20025;-65
2022/05/07 09:02:09;;;;;;;33.92;27.67;;;20.20;99.90;;;;;;5016792;28;20096;-67
2022/05/07 09:04:38;;;;;;;35.60;27.38;;;20.40;99.90;;;;;;5020141;28;20498;-65
2022/05/07 09:07:14;;;;;;;33.75;26.65;;;20.50;99.90;;;;;;5017252;28;20432;-65
2022/05/07 09:09:47;;;;;;;30.83;25.25;;;20.40;99.90;;;;;;5019968;28;20025;-66
2022/05/07 09:12:25;;;;;;;32.78;26.08;;;20.50;99.90;;;;;;5017998;28;20060;-66
2022/05/07 09:14:51;;;;;;;35.08;25.38;;;20.60;99.90;;;;;;5016141;28;20018;-66
2022/05/07 09:17:20;;;;;;;32.15;24.38;;;20.50;99.90;;;;;;5020717;28;20673;-66
2022/05/07 09:19:46;;;;;;;32.50;23.95;;;20.30;99.90;;;;;;5028972;28;20814;-67
2022/05/07 09:22:11;;;;;;;33.22;24.65;;;20.00;99.90;;;;;;5029062;28;20109;-65
2022/05/07 09:24:38;;;;;;;35.25;25.63;;;20.00;99.90;;;;;;5029021;28;20378;-67
2022/05/07 09:27:05;;;;;;;29.50;22.27;;;20.10;99.90;;;;;;5029403;28;20029;-66
2022/05/07 09:29:32;;;;;;;30.48;24.10;;;20.20;99.90;;;;;;5005272;28;20034;-66
2022/05/07 09:32:13;;;;;;;33.90;24.65;;;20.20;99.90;;;;;;5029234;28;20026;-66
2022/05/07 09:37:36;;;;;;;31.60;23.08;;;20.40;99.90;;;;;;5031225;28;20504;-67
2022/05/07 09:40:07;;;;;;;31.88;23.27;;;20.60;99.90;;;;;;5027853;28;20057;-66
2022/05/07 09:42:34;;;;;;;32.45;24.30;;;20.70;99.90;;;;;;5019349;28;20022;-66
2022/05/07 09:45:03;;;;;;;37.25;24.42;;;20.70;99.70;;;;;;5019599;28;20026;-66
2022/05/07 09:47:30;;;;;;;34.83;24.45;;;20.60;99.50;;;;;;5027818;28;20099;-66
2022/05/07 09:58:10;;;;;;;30.98;24.42;;;21.30;98.50;;;;;;5033837;28;20071;-65
2022/05/07 10:01:04;;;;;;;32.83;24.55;;;21.60;98.40;;;;;;5034666;28;20018;-67
2022/05/07 10:04:05;;;;;;;32.35;23.55;;;21.60;97.50;;;;;;5016679;28;20049;-66
2022/05/07 10:06:45;;;;;;;33.05;24.33;;;21.70;97.50;;;;;;5034855;28;20029;-67
2022/05/07 10:09:47;;;;;;;36.42;26.63;;;21.50;97.00;;;;;;5034621;28;20120;-67
2022/05/07 10:12:19;;;;;;;32.38;25.55;;;21.50;96.90;;;;;;5033152;28;20446;-66
2022/05/07 10:14:44;;;;;;;34.70;25.38;;;21.50;96.90;;;;;;5033716;28;20029;-66
2022/05/07 10:17:12;;;;;;;32.25;24.55;;;21.50;96.50;;;;;;5034371;28;20056;-66
2022/05/07 10:19:43;;;;;;;29.92;24.52;;;21.60;97.60;;;;;;5034777;28;20045;-66
2022/05/07 10:22:16;;;;;;;34.03;26.20;;;21.90;96.40;;;;;;5034701;28;20034;-66
2022/05/07 10:24:42;;;;;;;33.75;24.50;;;22.20;96.00;;;;;;5034090;28;20055;-67
2022/05/07 10:27:37;;;;;;;30.77;24.67;;;22.60;95.50;;;;;;5034104;28;20033;-67
2022/05/07 10:30:13;;;;;;;45.92;40.10;;;22.70;94.50;;;;;;5034078;28;20035;-65
2022/05/07 10:32:48;;;;;;;32.67;26.08;;;23.00;93.70;;;;;;5016275;28;20027;-66
2022/05/07 10:35:14;;;;;;;34.72;24.13;;;22.50;93.30;;;;;;5016031;28;20036;-66
2022/05/07 10:37:43;;;;;;;33.25;24.67;;;22.70;92.70;;;;;;5034343;28;20096;-66
2022/05/07 10:40:12;;;;;;;34.80;25.98;;;22.40;93.20;;;;;;5033685;28;20022;-66
2022/05/07 10:42:39;;;;;;;32.13;24.08;;;22.30;93.70;;;;;;5033885;28;20417;-66
2022/05/07 10:45:06;;;;;;;29.83;22.77;;;22.10;93.80;;;;;;5033922;28;20025;-66
2022/05/07 10:47:32;;;;;;;29.25;22.30;;;22.40;93.90;;;;;;5033999;28;20044;-65
2022/05/07 10:50:13;;;;;;;30.58;23.02;;;22.80;93.00;;;;;;5034162;28;20537;-66
2022/05/07 10:52:39;;;;;;;31.30;23.33;;;23.50;92.60;;;;;;5033406;28;20029;-66
2022/05/07 10:55:17;;;;;;;30.52;23.35;;;24.10;91.70;;;;;;5033932;28;20028;-67
2022/05/07 10:57:48;;;;;;;29.67;24.00;;;24.40;90.80;;;;;;5033511;28;20033;-65
2022/05/07 11:00:21;;;;;;;34.03;25.33;;;24.50;90.30;;;;;;5033662;28;20464;-64
2022/05/07 11:02:49;;;;;;;39.67;31.15;;;23.90;89.90;;;;;;5033678;28;20149;-66
2022/05/07 11:05:15;;;;;;;33.13;23.45;;;23.50;90.60;;;;;;5033359;28;20029;-63
2022/05/07 11:07:43;;;;;;;30.92;23.95;;;23.10;91.10;;;;;;5032028;28;20037;-64
2022/05/07 11:10:09;;;;;;;31.42;24.38;;;22.70;91.00;;;;;;5032628;28;20032;-64
2022/05/07 11:12:36;;;;;;;31.05;24.35;;;22.60;91.20;;;;;;5033275;28;20036;-64
2022/05/07 11:15:06;;;;;;;32.38;25.73;;;22.80;91.10;;;;;;5015618;28;20018;-65
2022/05/07 11:17:36;;;;;;;35.67;25.67;;;22.50;90.60;;;;;;5032841;28;20025;-64
2022/05/07 11:20:04;;;;;;;31.35;25.23;;;22.00;91.20;;;;;;5033264;28;20096;-64
2022/05/07 11:22:32;;;;;;;31.20;23.98;;;22.10;91.50;;;;;;5032011;28;20040;-64
2022/05/07 11:24:59;;;;;;;33.58;26.63;;;22.30;91.30;;;;;;5032770;28;20065;-64
2022/05/07 11:27:31;;;;;;;30.63;25.13;;;22.40;90.70;;;;;;5032993;28;20053;-64
2022/05/07 11:29:56;;;;;;;32.90;25.90;;;22.50;90.50;;;;;;5032664;28;20493;-65
2022/05/07 11:32:39;;;;;;;31.80;26.58;;;23.10;89.10;;;;;;4816575;28;10000917;-64
2022/05/07 11:35:05;;;;;;;36.70;27.05;;;23.30;88.20;;;;;;5030417;28;20324;-63
2022/05/07 11:37:46;;;;;;;31.33;24.35;;;23.80;86.40;;;;;;5031036;28;20060;-64
2022/05/07 11:40:13;;;;;;;31.15;24.17;;;25.30;84.20;;;;;;5014630;28;20021;-64
2022/05/07 11:42:45;;;;;;;32.28;24.25;;;25.80;82.90;;;;;;5032572;28;20037;-64
2022/05/07 11:45:31;;;;;;;28.05;22.77;;;25.80;81.60;;;;;;5032222;28;20029;-64
2022/05/07 11:47:58;;;;;;;35.38;24.95;;;25.70;80.50;;;;;;5032651;28;20109;-64
2022/05/07 11:50:30;;;;;;;36.10;32.25;;;25.00;81.40;;;;;;5014790;28;20082;-66
2022/05/07 11:52:56;;;;;;;27.17;21.88;;;24.90;82.10;;;;;;5014606;28;20112;-65
2022/05/07 11:55:29;;;;;;;28.45;21.55;;;25.40;81.60;;;;;;5032614;28;20021;-64
2022/05/07 11:57:58;;;;;;;29.15;21.75;;;26.00;79.80;;;;;;5032057;28;20021;-66
2022/05/07 12:00:30;;;;;;;27.92;23.00;;;26.50;79.90;;;;;;5032020;28;20101;-66
2022/05/07 12:02:57;;;;;;;27.55;23.15;;;26.60;78.70;;;;;;5032339;28;20355;-65
2022/05/07 12:05:25;;;;;;;27.35;23.35;;;26.70;78.60;;;;;;5031484;28;20033;-64
2022/05/07 12:07:51;;;;;;;28.65;21.85;;;26.90;77.60;;;;;;5030749;28;20040;-65
2022/05/07 12:10:18;;;;;;;28.15;21.70;;;26.50;76.30;;;;;;5031950;28;20051;-66
2022/05/07 12:12:45;;;;;;;27.27;21.92;;;25.90;78.00;;;;;;5032075;28;20409;-65
2022/05/07 12:15:11;;;;;;;31.67;22.70;;;25.00;78.20;;;;;;5013928;28;20021;-66
2022/05/07 12:17:52;;;;;;;28.27;22.30;;;24.10;80.70;;;;;;5020259;28;20104;-64
2022/05/07 12:20:23;;;;;;;28.17;21.98;;;24.10;81.80;;;;;;5022938;28;20065;-64
2022/05/07 12:31:09;;;;;;;27.70;21.33;;;23.70;80.90;;;;;;5031614;28;20036;-65
2022/05/07 12:33:37;;;;;;;27.33;21.65;;;23.60;81.60;;;;;;5031368;28;20025;-64
2022/05/07 12:36:03;;;;;;;26.97;21.40;;;24.60;81.00;;;;;;5031569;28;20045;-67
2022/05/07 12:38:29;;;;;;;28.85;21.48;;;25.10;79.30;;;;;;5032166;28;20029;-66
2022/05/07 12:40:54;;;;;;;27.63;20.48;;;25.00;79.00;;;;;;5030993;28;20068;-65
2022/05/07 12:43:20;;;;;;;27.40;22.35;;;24.50;79.10;;;;;;5031278;28;20100;-66
2022/05/07 12:45:46;;;;;;;28.63;22.02;;;23.90;79.30;;;;;;5029196;28;20473;-66
2022/05/07 12:48:12;;;;;;;27.20;20.88;;;23.50;79.70;;;;;;4674472;28;10000120;-65
2022/05/07 12:50:38;;;;;;;26.73;21.55;;;23.40;80.70;;;;;;5028284;28;20063;-65
2022/05/07 12:53:03;;;;;;;28.05;21.33;;;23.30;80.00;;;;;;5028142;28;20061;-65
2022/05/07 12:55:29;;;;;;;29.98;20.63;;;23.40;80.60;;;;;;5028357;28;20021;-65
2022/05/07 12:57:54;;;;;;;24.20;19.83;;;23.40;80.30;;;;;;5028773;28;20060;-65
2022/05/07 13:00:20;;;;;;;24.45;18.92;;;23.20;81.10;;;;;;5028411;28;20124;-63
2022/05/07 13:02:50;;;;;;;23.25;17.30;;;23.20;79.40;;;;;;5028211;28;20090;-64
2022/05/07 13:05:16;;;;;;;27.02;18.38;;;23.20;80.10;;;;;;5010545;28;20056;-64